Umar1 — 9HA2498 — position and weather

sailwx.info

Track history (hours):
 
Tides and Currents Weather Stations Pressure Air Temp Water Temp Dewpoint Dewpoint Depression Visibility Wind Speed Wind Dir Waves Ship Positions

Umar1

Last reported at 2015-Aug-25 08:22 UTC. Time now 2015-Aug-29 23:35 UTC.
Position N 58°43' E 018°13'.

Length 100 m; draft 5.1 m.

Type: Ship. MMSI: 248751000.

Date/timePositionNaut miles runAvg speedWind from/ knotsBaromVisibWave heightAir tempDewpointWater temp
2015-Aug-25 08:22N 58°43' E 018°13'0 0.0
2015-Aug-25 01:31N 58°43' E 018°13'0 0.0
2015-Aug-25 00:25N 58°43' E 018°13'0 0.0
2015-Aug-24 23:31N 58°43' E 018°13'0 0.0
2015-Aug-24 22:28N 58°43' E 018°13'0 0.0
2015-Aug-24 20:04N 58°43' E 018°13'0 0.0
2015-Aug-24 19:19N 58°43' E 018°13'0 0.0
2015-Aug-24 18:28N 58°43' E 018°13'0 0.0
2015-Aug-24 10:25N 58°43' E 018°13'0 0.0
2015-Aug-24 09:31N 58°43' E 018°13'0 0.0
2015-Aug-24 02:31N 58°43' E 018°13'0 0.0
2015-Aug-24 01:31N 58°43' E 018°13'5 0.9
2015-Aug-23 20:26N 58°45' E 018°20'7410.7
2015-Aug-23 13:32N 59°46' E 019°42'  
2015-Aug-19 05:17N 58°02' E 018°15'911.6
2015-Aug-19 04:30N 57°54' E 018°09'1111.1
2015-Aug-19 03:30N 57°43' E 018°01'2311.4
2015-Aug-19 01:31N 57°22' E 017°46'1111.2
2015-Aug-19 00:33N 57°12' E 017°38'6210.3
2015-Aug-18 18:33N 56°15' E 016°57'72 7.1
2015-Aug-18 08:30N 55°34' E 015°12'7 7.6
2015-Aug-18 07:33N 55°31' E 015°00'8 7.9
2015-Aug-18 06:33N 55°27' E 014°48'8 8.2
2015-Aug-18 05:33N 55°22' E 014°36'9 9.0
2015-Aug-18 04:33N 55°15' E 014°27'410.0
2015-Aug-18 04:11N 55°12' E 014°23'0 9.9
2015-Aug-18 04:08N 55°12' E 014°22'6 9.7
2015-Aug-18 03:33N 55°07' E 014°16'9 8.9
2015-Aug-18 02:33N 55°01' E 014°05'8 7.8
2015-Aug-18 01:33N 54°57' E 013°53'8 7.1
2015-Aug-18 00:26N 54°53' E 013°41'26 6.1
2015-Aug-17 20:13N 54°44' E 012°60'5 6.3
2015-Aug-17 19:26N 54°44' E 012°51'6 6.1
2015-Aug-17 18:29N 54°43' E 012°41'9 9.0
2015-Aug-17 17:31N 54°38' E 012°28'11 8.3
2015-Aug-17 16:08N 54°30' E 012°15'5 9.3
2015-Aug-17 15:33N 54°25' E 012°10'8 8.4
2015-Aug-17 14:33N 54°22' E 011°57'1110.6
2015-Aug-17 13:33N 54°12' E 012°05'4 1.7
2015-Aug-17 11:28N 54°09' E 012°08'0 0.0
2015-Aug-17 10:13N 54°09' E 012°08'0 0.0
2015-Aug-17 09:04N 54°09' E 012°08'0 0.0
2015-Aug-17 08:28N 54°09' E 012°08'0 0.0
2015-Aug-17 06:17N 54°09' E 012°08'0 0.0
2015-Aug-17 04:32N 54°09' E 012°08'0 0.0
2015-Aug-17 03:29N 54°09' E 012°08'0 0.0
2015-Aug-17 02:29N 54°09' E 012°08'0 0.0
2015-Aug-17 01:29N 54°09' E 012°08'0 0.0
2015-Aug-16 23:26N 54°09' E 012°08'0 0.0
2015-Aug-16 22:29N 54°09' E 012°08'0 0.0
2015-Aug-16 21:20N 54°09' E 012°08'0 0.0
2015-Aug-16 20:32N 54°09' E 012°08'0 0.0
2015-Aug-16 19:20N 54°09' E 012°08'0 0.0
2015-Aug-16 18:26N 54°09' E 012°08'0 0.0
2015-Aug-16 16:26N 54°09' E 012°08'0 0.0
2015-Aug-16 15:23N 54°09' E 012°08'0 0.0
2015-Aug-16 14:29N 54°09' E 012°08'0 0.0
2015-Aug-16 13:26N 54°09' E 012°08'0 0.0
2015-Aug-16 11:32N 54°09' E 012°08'0 0.0
2015-Aug-16 10:32N 54°09' E 012°08'3 3.5
2015-Aug-16 09:32N 54°12' E 012°05'6 5.7
2015-Aug-16 08:30N 54°14' E 011°55'0 0.0
2015-Aug-16 07:27N 54°14' E 011°55'0 0.0
2015-Aug-16 06:27N 54°14' E 011°55'0 0.0
2015-Aug-16 05:30N 54°14' E 011°55'0 0.0
2015-Aug-16 04:27N 54°14' E 011°55'0 0.0
2015-Aug-16 03:33N 54°14' E 011°55'0 0.0
2015-Aug-16 02:33N 54°14' E 011°55'0 0.1
2015-Aug-16 01:18N 54°14' E 011°55'0 0.0
2015-Aug-16 00:30N 54°14' E 011°55'0 0.0
2015-Aug-15 23:33N 54°14' E 011°55'0 0.0
2015-Aug-15 22:24N 54°14' E 011°55'0 0.0
2015-Aug-15 21:12N 54°14' E 011°55'0 0.0
2015-Aug-15 20:33N 54°14' E 011°55'0 0.0
2015-Aug-15 19:30N 54°14' E 011°55'0 0.0
2015-Aug-15 18:33N 54°14' E 011°55'0 0.0
2015-Aug-15 17:27N 54°14' E 011°55'0 0.0
2015-Aug-15 16:27N 54°14' E 011°55'0 0.0
2015-Aug-15 15:24N 54°14' E 011°55'0 0.0
2015-Aug-15 14:31N 54°14' E 011°55'0 0.0
2015-Aug-15 13:27N 54°14' E 011°55'0 0.0
2015-Aug-15 12:27N 54°14' E 011°55'0 0.0
2015-Aug-15 11:33N 54°14' E 011°55'0 0.0
2015-Aug-15 10:30N 54°14' E 011°55'0 0.0
2015-Aug-15 09:33N 54°14' E 011°55'0 0.0
2015-Aug-15 08:33N 54°14' E 011°55'  
Track history (hours):
 
Tides and Currents Weather Stations Pressure Air Temp Water Temp Dewpoint Dewpoint Depression Visibility Wind Speed Wind Dir Waves Ship Positions

Umar1

Last reported at 2015-Aug-25 08:22 UTC. Time now 2015-Aug-29 23:35 UTC.
Position N 58°43' E 018°13'.

Length 100 m; draft 5.1 m.

Type: Ship. MMSI: 248751000.

Date/timePositionNaut miles runAvg speedWind from/ knotsBaromVisibWave heightAir tempDewpointWater temp
2015-Aug-25 08:22N 58°43' E 018°13'0 0.0
2015-Aug-25 01:31N 58°43' E 018°13'0 0.0
2015-Aug-25 00:25N 58°43' E 018°13'0 0.0
2015-Aug-24 23:31N 58°43' E 018°13'0 0.0
2015-Aug-24 22:28N 58°43' E 018°13'0 0.0
2015-Aug-24 20:04N 58°43' E 018°13'0 0.0
2015-Aug-24 19:19N 58°43' E 018°13'0 0.0
2015-Aug-24 18:28N 58°43' E 018°13'0 0.0
2015-Aug-24 10:25N 58°43' E 018°13'0 0.0
2015-Aug-24 09:31N 58°43' E 018°13'0 0.0
2015-Aug-24 02:31N 58°43' E 018°13'0 0.0
2015-Aug-24 01:31N 58°43' E 018°13'5 0.9
2015-Aug-23 20:26N 58°45' E 018°20'7410.7
2015-Aug-23 13:32N 59°46' E 019°42'  
2015-Aug-19 05:17N 58°02' E 018°15'911.6
2015-Aug-19 04:30N 57°54' E 018°09'1111.1
2015-Aug-19 03:30N 57°43' E 018°01'2311.4
2015-Aug-19 01:31N 57°22' E 017°46'1111.2
2015-Aug-19 00:33N 57°12' E 017°38'6210.3
2015-Aug-18 18:33N 56°15' E 016°57'72 7.1
2015-Aug-18 08:30N 55°34' E 015°12'7 7.6
2015-Aug-18 07:33N 55°31' E 015°00'8 7.9
2015-Aug-18 06:33N 55°27' E 014°48'8 8.2
2015-Aug-18 05:33N 55°22' E 014°36'9 9.0
2015-Aug-18 04:33N 55°15' E 014°27'410.0
2015-Aug-18 04:11N 55°12' E 014°23'0 9.9
2015-Aug-18 04:08N 55°12' E 014°22'6 9.7
2015-Aug-18 03:33N 55°07' E 014°16'9 8.9
2015-Aug-18 02:33N 55°01' E 014°05'8 7.8
2015-Aug-18 01:33N 54°57' E 013°53'8 7.1
2015-Aug-18 00:26N 54°53' E 013°41'26 6.1
2015-Aug-17 20:13N 54°44' E 012°60'5 6.3
2015-Aug-17 19:26N 54°44' E 012°51'6 6.1
2015-Aug-17 18:29N 54°43' E 012°41'9 9.0
2015-Aug-17 17:31N 54°38' E 012°28'11 8.3
2015-Aug-17 16:08N 54°30' E 012°15'5 9.3
2015-Aug-17 15:33N 54°25' E 012°10'8 8.4
2015-Aug-17 14:33N 54°22' E 011°57'1110.6
2015-Aug-17 13:33N 54°12' E 012°05'4 1.7
2015-Aug-17 11:28N 54°09' E 012°08'0 0.0
2015-Aug-17 10:13N 54°09' E 012°08'0 0.0
2015-Aug-17 09:04N 54°09' E 012°08'0 0.0
2015-Aug-17 08:28N 54°09' E 012°08'0 0.0
2015-Aug-17 06:17N 54°09' E 012°08'0 0.0
2015-Aug-17 04:32N 54°09' E 012°08'0 0.0
2015-Aug-17 03:29N 54°09' E 012°08'0 0.0
2015-Aug-17 02:29N 54°09' E 012°08'0 0.0
2015-Aug-17 01:29N 54°09' E 012°08'0 0.0
2015-Aug-16 23:26N 54°09' E 012°08'0 0.0
2015-Aug-16 22:29N 54°09' E 012°08'0 0.0
2015-Aug-16 21:20N 54°09' E 012°08'0 0.0
2015-Aug-16 20:32N 54°09' E 012°08'0 0.0
2015-Aug-16 19:20N 54°09' E 012°08'0 0.0
2015-Aug-16 18:26N 54°09' E 012°08'0 0.0
2015-Aug-16 16:26N 54°09' E 012°08'0 0.0
2015-Aug-16 15:23N 54°09' E 012°08'0 0.0
2015-Aug-16 14:29N 54°09' E 012°08'0 0.0
2015-Aug-16 13:26N 54°09' E 012°08'0 0.0
2015-Aug-16 11:32N 54°09' E 012°08'0 0.0
2015-Aug-16 10:32N 54°09' E 012°08'3 3.5
2015-Aug-16 09:32N 54°12' E 012°05'6 5.7
2015-Aug-16 08:30N 54°14' E 011°55'0 0.0
2015-Aug-16 07:27N 54°14' E 011°55'0 0.0
2015-Aug-16 06:27N 54°14' E 011°55'0 0.0
2015-Aug-16 05:30N 54°14' E 011°55'0 0.0
2015-Aug-16 04:27N 54°14' E 011°55'0 0.0
2015-Aug-16 03:33N 54°14' E 011°55'0 0.0
2015-Aug-16 02:33N 54°14' E 011°55'0 0.1
2015-Aug-16 01:18N 54°14' E 011°55'0 0.0
2015-Aug-16 00:30N 54°14' E 011°55'0 0.0
2015-Aug-15 23:33N 54°14' E 011°55'0 0.0
2015-Aug-15 22:24N 54°14' E 011°55'0 0.0
2015-Aug-15 21:12N 54°14' E 011°55'0 0.0
2015-Aug-15 20:33N 54°14' E 011°55'0 0.0
2015-Aug-15 19:30N 54°14' E 011°55'0 0.0
2015-Aug-15 18:33N 54°14' E 011°55'0 0.0
2015-Aug-15 17:27N 54°14' E 011°55'0 0.0
2015-Aug-15 16:27N 54°14' E 011°55'0 0.0
2015-Aug-15 15:24N 54°14' E 011°55'0 0.0
2015-Aug-15 14:31N 54°14' E 011°55'0 0.0
2015-Aug-15 13:27N 54°14' E 011°55'0 0.0
2015-Aug-15 12:27N 54°14' E 011°55'0 0.0
2015-Aug-15 11:33N 54°14' E 011°55'0 0.0
2015-Aug-15 10:30N 54°14' E 011°55'0 0.0
2015-Aug-15 09:33N 54°14' E 011°55'0 0.0
2015-Aug-15 08:33N 54°14' E 011°55'  

Dump ship's entire track history